createdAt,value
2018-04-08T00:02:23.052Z,4.34
2018-04-08T00:08:13.871Z,5.62
2018-04-08T00:14:04.696Z,7.29
2018-04-08T00:19:55.512Z,8.17
2018-04-08T00:25:46.295Z,5.53
2018-04-08T00:31:37.084Z,7.43
2018-04-08T00:37:27.912Z,8.09
2018-04-08T00:43:18.769Z,5.76
2018-04-08T00:49:09.512Z,7.49
2018-04-08T00:55:00.321Z,5.78
2018-04-08T01:00:51.096Z,6.55
2018-04-08T01:06:41.931Z,6.14
2018-04-08T01:12:32.743Z,8.79
2018-04-08T01:18:23.540Z,7.12
2018-04-08T01:24:14.397Z,5.46
2018-04-08T01:30:05.158Z,6.77
2018-04-08T01:35:55.954Z,9.38
2018-04-08T01:41:46.751Z,5.96
2018-04-08T01:47:37.555Z,6.93
2018-04-08T01:53:28.353Z,6.07
2018-04-08T01:59:19.252Z,6.16
2018-04-08T02:05:09.990Z,5.8
2018-04-08T02:11:00.811Z,7.51
2018-04-08T02:16:51.631Z,7.64
2018-04-08T02:22:42.430Z,5.74
2018-04-08T02:28:33.259Z,8.09
2018-04-08T02:34:24.056Z,7.75
2018-04-08T02:40:14.807Z,6.83
2018-04-08T02:46:05.611Z,5.65
2018-04-08T02:51:56.437Z,5.95
2018-04-08T02:57:47.210Z,8.35
2018-04-08T03:03:38.040Z,5.41
2018-04-08T03:09:28.834Z,5.82
2018-04-08T03:15:19.635Z,5.26
2018-04-08T03:21:10.421Z,5.08
2018-04-08T03:27:01.270Z,4.9
2018-04-08T03:32:52.033Z,6.54
2018-04-08T03:38:42.814Z,6.05
2018-04-08T03:44:33.634Z,7.39
2018-04-08T03:50:24.414Z,5.75
2018-04-08T03:56:15.229Z,5.41
2018-04-08T04:02:06.064Z,8.29
2018-04-08T04:07:56.818Z,5.7
2018-04-08T04:13:47.648Z,6.09
2018-04-08T04:19:38.443Z,7.04
2018-04-08T04:25:29.267Z,7.34
2018-04-08T04:31:20.058Z,4.84
2018-04-08T04:37:10.779Z,4.91
2018-04-08T04:43:01.578Z,7.96
2018-04-08T04:48:52.366Z,5.75
2018-04-08T04:54:43.140Z,6.07
2018-04-08T05:00:33.980Z,6.37
2018-04-08T05:06:24.819Z,5.49
2018-04-08T05:12:15.607Z,4.92
2018-04-08T05:18:06.331Z,6.01
2018-04-08T05:23:57.116Z,5.17
2018-04-08T05:29:47.944Z,4.98
2018-04-08T05:35:38.746Z,8.03
2018-04-08T05:41:29.530Z,10.4
2018-04-08T05:47:20.289Z,12.87
2018-04-08T05:53:11.099Z,19.62
2018-04-08T05:59:01.900Z,34.6
2018-04-08T06:04:52.719Z,26.09
2018-04-08T06:10:43.532Z,23.5
2018-04-08T06:16:34.307Z,29.94
2018-04-08T06:22:25.150Z,27.31
2018-04-08T06:28:15.924Z,25.27
2018-04-08T06:34:06.686Z,23.3
2018-04-08T06:39:57.523Z,29.58
2018-04-08T06:45:48.319Z,34.51
2018-04-08T06:51:39.135Z,25.2
2018-04-08T06:57:29.912Z,29.27
2018-04-08T07:03:20.747Z,25.55
2018-04-08T07:09:11.600Z,33.31
2018-04-08T07:15:02.450Z,27.65
2018-04-08T07:20:53.199Z,37.13
2018-04-08T07:26:44.023Z,29.43
2018-04-08T07:32:34.839Z,47.11
2018-04-08T07:38:25.666Z,50.64
2018-04-08T07:44:16.531Z,33.04
2018-04-08T07:50:07.401Z,17.95
2018-04-08T07:55:58.141Z,17.78
2018-04-08T08:01:48.968Z,14.45
2018-04-08T08:07:39.846Z,12.65
2018-04-08T08:13:30.641Z,13.32
2018-04-08T08:19:21.574Z,17.76
2018-04-08T08:25:12.310Z,24.6
2018-04-08T08:31:03.165Z,25.99
2018-04-08T08:36:54.010Z,14.07
2018-04-08T08:42:44.852Z,14.36
2018-04-08T08:48:35.735Z,12.51
2018-04-08T08:54:26.567Z,7.62
2018-04-08T09:00:17.463Z,38.35
2018-04-08T09:06:08.326Z,10.72
2018-04-08T09:11:59.225Z,6.56
2018-04-08T09:17:50.068Z,6.88
2018-04-08T09:23:40.959Z,2.64
2018-04-08T09:29:31.901Z,10
2018-04-08T09:35:22.770Z,2.35
2018-04-08T09:41:13.693Z,3.98
2018-04-08T09:47:04.531Z,3.32
2018-04-08T09:52:55.426Z,6.77
2018-04-08T09:58:46.357Z,3.18
2018-04-08T10:04:37.268Z,3.35
2018-04-08T10:10:28.073Z,2.92
2018-04-08T10:16:18.898Z,2.66
2018-04-08T10:22:09.710Z,3.29
2018-04-08T10:28:00.578Z,3.78
2018-04-08T10:33:51.388Z,2.32
2018-04-08T10:39:42.161Z,5.45
2018-04-08T10:45:33.026Z,2.63
2018-04-08T10:51:23.838Z,2.72
2018-04-08T10:57:14.668Z,6.67
2018-04-08T11:03:05.516Z,3.26
2018-04-08T11:08:56.376Z,2.6
2018-04-08T11:14:47.208Z,2.22
2018-04-08T11:20:38.070Z,6.86
2018-04-08T11:26:28.941Z,2.23
2018-04-08T11:32:19.801Z,2.21
2018-04-08T11:38:10.636Z,3.69
2018-04-08T11:44:01.500Z,2.02
2018-04-08T11:49:52.366Z,2.51
2018-04-08T11:55:43.258Z,2.05
2018-04-08T12:01:34.075Z,2.49
2018-04-08T12:07:24.985Z,2.04
2018-04-08T12:13:15.854Z,2.06
2018-04-08T12:19:06.764Z,3.59
2018-04-08T12:24:57.558Z,2.22
2018-04-08T12:30:48.426Z,2.66
2018-04-08T12:36:39.292Z,2.45
2018-04-08T12:42:30.200Z,2.23
2018-04-08T12:48:21.027Z,2.73
2018-04-08T12:54:11.893Z,2.42
2018-04-08T13:00:02.764Z,2.57
2018-04-08T13:05:53.624Z,1.98
2018-04-08T13:11:44.637Z,2.24
2018-04-08T13:17:35.596Z,2.13
2018-04-08T13:23:26.218Z,1.93
2018-04-08T13:29:17.162Z,6.14
2018-04-08T13:35:07.945Z,2.25
2018-04-08T13:40:58.746Z,3.2
2018-04-08T13:46:49.580Z,2.66
2018-04-08T13:52:40.438Z,1.86
2018-04-08T13:58:31.247Z,2.16
2018-04-08T14:04:22.077Z,1.87
2018-04-08T14:10:12.914Z,1.7
2018-04-08T14:16:03.745Z,4.1
2018-04-08T14:21:54.599Z,3.74
2018-04-08T14:27:45.461Z,4.36
2018-04-08T14:33:36.268Z,3.74
2018-04-08T14:39:27.038Z,2.62
2018-04-08T14:45:17.895Z,5.1
2018-04-08T14:51:08.668Z,5.79
2018-04-08T14:56:59.597Z,5.27
2018-04-08T15:02:50.527Z,3.49
2018-04-08T15:08:41.506Z,5.33
2018-04-08T15:14:32.368Z,2.22
2018-04-08T15:20:23.251Z,3.01
2018-04-08T15:26:14.127Z,2.47
2018-04-08T15:32:04.896Z,5.07
2018-04-08T15:37:55.735Z,3.92
2018-04-08T15:43:46.643Z,1.98
2018-04-08T15:49:37.586Z,2.14
2018-04-08T15:55:28.456Z,7.39
2018-04-08T16:01:19.396Z,4.13
2018-04-08T16:07:10.348Z,3.55
2018-04-08T16:13:01.233Z,3.42
2018-04-08T16:18:52.144Z,3.14
2018-04-08T16:24:42.992Z,19.77
2018-04-08T16:30:33.904Z,24
2018-04-08T16:36:24.820Z,4.41
2018-04-08T16:42:15.684Z,5.58
2018-04-08T16:48:06.570Z,9.91
2018-04-08T16:53:57.470Z,6.04
2018-04-08T16:59:48.426Z,31.54
2018-04-08T17:05:39.272Z,11.98
2018-04-08T17:11:30.180Z,53.27
2018-04-08T17:17:21.087Z,26.11
2018-04-08T17:23:11.948Z,23.35
2018-04-08T17:29:02.843Z,9.94
2018-04-08T17:34:53.707Z,6.9
2018-04-08T17:40:44.577Z,16.74
2018-04-08T17:46:35.466Z,17.74
2018-04-08T17:52:26.347Z,13.93
2018-04-08T17:58:17.233Z,5.05
2018-04-08T18:04:08.099Z,4.79
2018-04-08T18:09:59.025Z,4.91
2018-04-08T18:15:49.845Z,4.12
2018-04-08T18:21:40.705Z,6.21
2018-04-08T18:27:31.612Z,6.35
2018-04-08T18:33:22.460Z,4.19
2018-04-08T18:39:13.364Z,6.87
2018-04-08T18:45:04.201Z,4.58
2018-04-08T18:50:55.088Z,6.76
2018-04-08T18:56:45.938Z,7.64
2018-04-08T19:02:36.852Z,6.49
2018-04-08T19:08:27.671Z,4.94
2018-04-08T19:14:18.560Z,7.83
2018-04-08T19:20:09.416Z,6.07
2018-04-08T19:26:00.235Z,4.37
2018-04-08T19:31:51.152Z,4.8
2018-04-08T19:37:41.993Z,4.36
2018-04-08T19:43:32.824Z,3.41
2018-04-08T19:49:23.673Z,6.09
2018-04-08T19:55:14.660Z,4.7
2018-04-08T20:01:05.467Z,3.71
2018-04-08T20:06:56.331Z,6.89
2018-04-08T20:12:47.119Z,7.54
2018-04-08T20:18:37.985Z,4.2
2018-04-08T20:24:28.868Z,5
2018-04-08T20:30:19.806Z,3.92
2018-04-08T20:36:10.638Z,5.79
2018-04-08T20:42:01.403Z,6.33
2018-04-08T20:47:52.296Z,7.27
2018-04-08T20:53:43.113Z,6.93
2018-04-08T20:59:33.991Z,5.47
2018-04-08T21:05:24.838Z,7.17
2018-04-08T21:11:15.703Z,7.37
2018-04-08T21:17:06.544Z,3.48
2018-04-08T21:22:57.390Z,4.1
2018-04-08T21:28:48.290Z,3.08
2018-04-08T21:34:39.098Z,3.14
2018-04-08T21:40:30.006Z,3.08
2018-04-08T21:46:20.819Z,4.45
2018-04-08T21:52:11.647Z,3.31
2018-04-08T21:58:02.585Z,5.09
2018-04-08T22:03:53.403Z,3.89
2018-04-08T22:09:44.233Z,3.88
2018-04-08T22:15:35.058Z,2.86
2018-04-08T22:21:25.931Z,3.56
2018-04-08T22:27:16.756Z,4.45
2018-04-08T22:33:07.627Z,2.97
2018-04-08T22:38:58.478Z,5.07
2018-04-08T22:44:49.327Z,2.99
2018-04-08T22:50:40.221Z,9.36
2018-04-08T22:56:31.049Z,10.7
2018-04-08T23:02:21.878Z,9.93
2018-04-08T23:08:12.742Z,8.36
2018-04-08T23:14:03.608Z,7.06
2018-04-08T23:19:54.462Z,8.43
2018-04-08T23:25:45.299Z,5.82
2018-04-08T23:31:36.174Z,7.7
2018-04-08T23:37:27.025Z,6.42
2018-04-08T23:43:17.838Z,5.87
2018-04-08T23:49:08.713Z,7.76
2018-04-08T23:54:59.546Z,5.64
